Thursday, April 19, 2018, 4:24 PM CDT
Back to Local

KP28, Medicine Lodge

Location: Medicine Lodge, KS, United States Lat: 37.283
Local Time: 4:24 PM CDT (21:24 GMT) Lon: -98.55
Time Zone: US/Central Elev: 1538 ft

Show me the last for .
Show Decoded

2018-04-19 14:56 METAR KP28 191956Z AUTO VRB06G14KT 17/M02 A3038 RMK AO1 SLP291 T01671022 =
2018-04-19 13:56 METAR KP28 191856Z AUTO 36007KT 15/M02 A3041 RMK AO1 SLP299 T01501022 =
2018-04-19 12:56 METAR KP28 191756Z AUTO 04008KT 14/M01 A3043 RMK AO1 SLP308 T01391011 10144
                 21006 58003 =
2018-04-19 11:56 METAR KP28 191656Z AUTO 03011KT 13/M01 A3044 RMK AO1 SLP312 T01281011 =
2018-04-19 10:56 METAR KP28 191556Z AUTO 02009G18KT 11/M01 A3044 RMK AO1 SLP312 T01111011 =
2018-04-19 09:56 METAR KP28 191456Z AUTO 01009KT 10/M01 A3044 RMK AO1 SLP311 T01001006 51017 =
2018-04-19 08:56 METAR KP28 191356Z AUTO 35004KT 06/M01 A3043 RMK AO1 SLP310 T00611006 =
2018-04-19 07:56 METAR KP28 191256Z AUTO 00000KT 02/M01 A3042 RMK AO1 SLP306 T00221011 =
2018-04-19 06:56 METAR KP28 191156Z AUTO 35003KT M01/M03 A3039 RMK AO1 SLP294 T10061028 10056
                 21011 51015 =
2018-04-19 05:56 METAR KP28 191056Z AUTO 36004KT M01/M03 A3038 RMK AO1 SLP289 T10061028 =
2018-04-19 04:56 METAR KP28 190956Z AUTO 02004KT 00/M03 A3036 RMK AO1 SLP283 T00001028 =
2018-04-19 03:56 METAR KP28 190856Z AUTO 34003KT 02/M02 A3034 RMK AO1 SLP275 T00171022 53014 =
2018-04-19 02:56 METAR KP28 190756Z AUTO 36005KT 01/M02 A3032 RMK AO1 SLP268 T00111022 =
2018-04-19 01:56 METAR KP28 190656Z AUTO 36004KT 03/M02 A3031 RMK AO1 SLP265 T00331017 =
2018-04-19 00:56 METAR KP28 190556Z AUTO 30003KT 06/M01 A3029 RMK AO1 SLP258 T00561011 10172
                 20056 402000056 51018 =
2018-04-18 23:56 METAR KP28 190456Z AUTO 00000KT 07/M02 A3028 RMK AO1 SLP255 T00671017 =
2018-04-18 22:56 METAR KP28 190356Z AUTO 03007KT 08/M02 A3027 RMK AO1 SLP249 T00831017 =
2018-04-18 21:56 METAR KP28 190256Z AUTO 03009KT 10/M02 A3024 RMK AO1 SLP241 T01001017 53025 =
2018-04-18 20:56 METAR KP28 190156Z AUTO 03009KT 12/M02 A3021 RMK AO1 SLP229 T01171017 =
2018-04-18 19:56 METAR KP28 190056Z AUTO 01013KT 15/M02 A3018 RMK AO1 SLP219 T01501022 =
2018-04-18 18:56 METAR KP28 182356Z AUTO 36015G21KT 17/M03 A3016 RMK AO1 PK WND 36031/2311 SLP213
                 T01721028 10200 20172 53019 =
2018-04-18 17:56 METAR KP28 182256Z AUTO 34017G29KT 18/M03 A3014 RMK AO1 PK WND 01036/2206 SLP204
                 T01781033 =
2018-04-18 16:56 METAR KP28 182156Z AUTO 34021G34KT 19/M03 A3013 RMK AO1 PK WND 35037/2123 SLP198
                 T01891033 =

Support USWX by starting your Amazon purchase here.